Terminal Aerodrome Forecast
Issued by NWS Wilmington, NC

Home | Current Version | Previous Version | Text Only | Print | Product List | Glossary On
Versions: 1 2 3 4 5 6 7 8 9 10 11 12 13 14 15 16
000
FTUS42 KILM 211120
TAFFLO
TAF
KFLO 211120Z 2112/2212 00000KT P6SM BKN015
     FM211500 09006KT P6SM BKN035 BKN250
     FM220000 15003KT P6SM SCT040 BKN250
      TEMPO 2208/2212 00000KT 3SM BR=

USA.gov is the U.S. government's official web portal to all federal, state and local government web resources and services.